Time;durP1;ratioP1;P1;durP2;ratioP2;P2;SDS_P1;SDS_P2;PMS_P1;PMS_P2;Temp;Humidity;BMP_temperature;BMP_pressure;BME280_temperature;BME280_humidity;BME280_pressure;Samples;Min_cycle;Max_cycle;Signal;HPM_P1;HPM_P2
2021/11/03 00:01:21;;;;;;;74.07;61.83;;;21.50;54.80;;;;;;4558529;61;21048;-29
2021/11/03 00:06:23;;;;;;;79.60;64.68;;;21.50;54.80;;;;;;4569398;57;21067;-21
2021/11/03 00:11:25;;;;;;;75.82;62.47;;;21.50;54.80;;;;;;4573784;57;21067;-20
2021/11/03 00:16:26;;;;;;;74.87;60.75;;;21.50;54.80;;;;;;4565467;57;21098;-26
2021/11/03 00:21:27;;;;;;;72.85;61.42;;;21.50;54.70;;;;;;4575217;57;21154;-29
2021/11/03 00:26:28;;;;;;;72.43;61.08;;;21.50;54.80;;;;;;4571648;57;22423;-25
2021/11/03 00:31:29;;;;;;;71.22;59.95;;;21.50;54.70;;;;;;4571701;57;21103;-28
2021/11/03 00:36:29;;;;;;;75.22;59.97;;;21.50;54.70;;;;;;4558188;61;21115;-28
2021/11/03 00:41:30;;;;;;;73.97;61.80;;;21.50;54.70;;;;;;4580395;57;21051;-29
2021/11/03 00:46:31;;;;;;;72.18;61.67;;;21.50;54.70;;;;;;4559156;57;21112;-32
2021/11/03 00:51:32;;;;;;;76.47;62.67;;;21.50;54.60;;;;;;4557914;61;21092;-30
2021/11/03 00:56:33;;;;;;;70.12;59.00;;;21.50;54.60;;;;;;4577370;57;21159;-27
2021/11/03 01:01:34;;;;;;;75.30;62.60;;;21.50;54.50;;;;;;4560918;57;21039;-29
2021/11/03 01:06:36;;;;;;;70.18;58.63;;;21.50;54.50;;;;;;4557542;58;21051;-31
2021/11/03 01:11:37;;;;;;;70.50;57.88;;;21.50;54.50;;;;;;4564068;57;21047;-31
2021/11/03 01:16:39;;;;;;;67.80;56.35;;;21.50;54.50;;;;;;4572030;57;21047;-32
2021/11/03 01:21:41;;;;;;;68.30;57.58;;;21.50;54.40;;;;;;4564296;57;21019;-27
2021/11/03 01:26:42;;;;;;;68.37;57.67;;;21.50;54.40;;;;;;4560402;57;21136;-28
2021/11/03 01:31:43;;;;;;;67.25;56.10;;;21.50;54.40;;;;;;4599908;57;21562;-23
2021/11/03 01:36:44;;;;;;;70.53;57.20;;;21.50;54.40;;;;;;4577281;57;21154;-28
2021/11/03 01:41:45;;;;;;;68.43;56.37;;;21.50;54.30;;;;;;4579270;57;21230;-19
2021/11/03 01:47:36;;;;;;;67.87;56.10;;;21.50;54.30;;;;;;4563307;57;21059;-26
2021/11/03 01:52:37;;;;;;;66.62;55.28;;;21.50;54.30;;;;;;4580732;57;21174;-24
2021/11/03 01:57:45;;;;;;;67.30;56.97;;;21.40;54.30;;;;;;4583503;57;21154;-27
2021/11/03 02:02:48;;;;;;;67.00;55.38;;;21.50;54.30;;;;;;4565583;57;21098;-24
2021/11/03 02:07:51;;;;;;;67.68;54.95;;;21.50;54.20;;;;;;4582648;57;21028;-21
2021/11/03 02:12:52;;;;;;;66.03;53.35;;;21.50;54.20;;;;;;4578877;57;21059;-25
2021/11/03 02:17:53;;;;;;;66.22;54.88;;;21.40;54.10;;;;;;4566893;57;21490;-25
2021/11/03 02:23:07;;;;;;;67.32;55.42;;;21.40;54.10;;;;;;4601361;57;21566;-28
2021/11/03 02:28:08;;;;;;;65.22;55.50;;;21.40;54.10;;;;;;4578941;57;21047;-28
2021/11/03 02:33:18;;;;;;;62.65;52.67;;;21.40;54.10;;;;;;4560404;57;21099;-31
2021/11/03 02:38:27;;;;;;;64.45;53.87;;;21.40;54.10;;;;;;4578372;57;21103;-31
2021/11/03 02:43:41;;;;;;;62.67;53.28;;;21.40;54.00;;;;;;4561344;57;21152;-30
2021/11/03 02:48:43;;;;;;;63.63;53.03;;;21.50;54.10;;;;;;4615342;57;21553;-22
2021/11/03 02:53:48;;;;;;;62.38;51.45;;;21.50;54.00;;;;;;4583041;57;21027;-28
2021/11/03 02:58:49;;;;;;;65.32;54.15;;;21.40;54.00;;;;;;4573569;57;21019;-26
2021/11/03 03:03:50;;;;;;;63.72;51.42;;;21.40;54.00;;;;;;4571737;57;21151;-25
2021/11/03 03:08:53;;;;;;;62.62;51.72;;;21.40;54.00;;;;;;4566885;57;21099;-27
2021/11/03 03:13:54;;;;;;;62.00;51.60;;;21.50;54.00;;;;;;4577969;57;21027;-21
2021/11/03 03:18:55;;;;;;;61.67;51.88;;;21.50;53.90;;;;;;4564262;57;21505;-26
2021/11/03 03:23:59;;;;;;;58.70;49.88;;;21.40;53.90;;;;;;4565580;57;21070;-27
2021/11/03 03:29:00;;;;;;;60.88;50.55;;;21.40;53.90;;;;;;4595150;57;21060;-27
2021/11/03 03:34:05;;;;;;;58.78;49.72;;;21.40;53.80;;;;;;4563901;57;21028;-26
2021/11/03 03:39:08;;;;;;;58.30;49.33;;;21.40;53.80;;;;;;4571385;57;21079;-23
2021/11/03 03:44:09;;;;;;;59.53;49.63;;;21.40;53.80;;;;;;4595291;57;21119;-27
2021/11/03 03:49:10;;;;;;;56.85;47.53;;;21.40;53.80;;;;;;4582549;57;21111;-24
2021/11/03 03:54:11;;;;;;;56.03;47.88;;;21.40;53.80;;;;;;4602652;57;22080;-29
2021/11/03 03:59:11;;;;;;;56.50;47.50;;;21.40;53.70;;;;;;4564112;57;21525;-19
2021/11/03 04:04:14;;;;;;;59.08;48.92;;;21.40;53.70;;;;;;4605559;57;21541;-25
2021/11/03 04:09:15;;;;;;;58.47;47.50;;;21.40;53.70;;;;;;4573263;57;21132;-28
2021/11/03 04:14:16;;;;;;;58.47;48.90;;;21.40;53.80;;;;;;4566313;57;21546;-23
2021/11/03 04:19:17;;;;;;;58.72;48.65;;;21.40;53.70;;;;;;4578105;57;21171;-28
2021/11/03 04:24:18;;;;;;;55.40;47.47;;;21.40;53.70;;;;;;4566435;57;21582;-27
2021/11/03 04:29:21;;;;;;;55.83;47.55;;;21.40;53.60;;;;;;4569176;57;21043;-25
2021/11/03 04:34:22;;;;;;;54.60;46.67;;;21.40;53.70;;;;;;4557638;61;21027;-27
2021/11/03 04:39:23;;;;;;;54.70;45.22;;;21.40;53.60;;;;;;4583265;57;21516;-30
2021/11/03 04:44:24;;;;;;;55.63;47.25;;;21.40;53.60;;;;;;4568560;57;21023;-29
2021/11/03 04:49:25;;;;;;;52.13;44.33;;;21.40;53.60;;;;;;4592205;57;21099;-25
2021/11/03 04:54:26;;;;;;;54.47;45.15;;;21.40;53.50;;;;;;4571315;57;21550;-29
2021/11/03 04:59:27;;;;;;;53.13;45.42;;;21.40;53.50;;;;;;4557680;61;21107;-24
2021/11/03 05:04:28;;;;;;;58.05;46.00;;;21.40;53.60;;;;;;4559131;57;21021;-31
2021/11/03 05:09:28;;;;;;;52.88;43.83;;;21.40;53.60;;;;;;4567163;57;21077;-23
2021/11/03 05:14:29;;;;;;;49.97;42.40;;;21.40;54.20;;;;;;4569834;57;21103;-26
2021/11/03 05:19:32;;;;;;;52.22;43.28;;;21.40;53.60;;;;;;4558052;61;21510;-26
2021/11/03 05:24:33;;;;;;;50.90;44.30;;;21.40;53.60;;;;;;4599310;57;21684;-21
2021/11/03 05:29:34;;;;;;;51.60;44.13;;;21.40;53.60;;;;;;4557776;57;21154;-31
2021/11/03 05:34:35;;;;;;;54.33;42.97;;;21.40;53.60;;;;;;4574887;57;21482;-32
2021/11/03 05:39:35;;;;;;;50.95;42.62;;;21.40;53.70;;;;;;4566960;57;21050;-30
2021/11/03 05:44:36;;;;;;;50.25;42.60;;;21.40;53.80;;;;;;4583323;57;21274;-21
2021/11/03 05:49:37;;;;;;;50.33;42.30;;;21.40;54.40;;;;;;4569617;57;21048;-23
2021/11/03 05:54:38;;;;;;;51.75;42.38;;;21.40;53.80;;;;;;4557314;58;21116;-22
2021/11/03 05:59:39;;;;;;;48.72;41.03;;;21.40;53.80;;;;;;4556928;61;21193;-29
2021/11/03 06:04:40;;;;;;;49.33;40.47;;;21.40;53.80;;;;;;4565334;57;21630;-28
2021/11/03 06:09:41;;;;;;;50.08;40.67;;;21.40;53.80;;;;;;4556292;61;21047;-20
2021/11/03 06:14:42;;;;;;;47.08;40.60;;;21.40;53.80;;;;;;4569587;57;21047;-25
2021/11/03 06:19:43;;;;;;;48.13;40.58;;;21.40;53.80;;;;;;4570802;57;21050;-26
2021/11/03 06:24:48;;;;;;;47.83;40.53;;;21.40;53.80;;;;;;4568369;57;21625;-28
2021/11/03 06:29:49;;;;;;;48.80;40.95;;;21.40;53.70;;;;;;4565882;57;21087;-29
2021/11/03 06:34:50;;;;;;;47.53;40.80;;;21.40;53.60;;;;;;4567076;57;21051;-30
2021/11/03 06:39:50;;;;;;;49.08;41.40;;;21.40;53.50;;;;;;4562935;57;21127;-25
2021/11/03 06:44:51;;;;;;;46.63;40.10;;;21.40;53.50;;;;;;4556995;61;21058;-28
2021/11/03 06:49:53;;;;;;;49.20;41.67;;;21.40;53.50;;;;;;4556178;61;21472;-28
2021/11/03 06:54:54;;;;;;;48.28;39.97;;;21.40;53.40;;;;;;4557059;61;21027;-26
2021/11/03 06:59:58;;;;;;;49.13;40.67;;;21.40;53.30;;;;;;4557331;61;21621;-26
2021/11/03 07:04:59;;;;;;;48.00;41.05;;;21.40;53.30;;;;;;4558139;61;21015;-30
2021/11/03 07:10:00;;;;;;;46.30;39.63;;;21.40;53.30;;;;;;4603461;57;21511;-28
2021/11/03 07:15:01;;;;;;;48.45;40.55;;;21.40;53.20;;;;;;4561856;57;21689;-26
2021/11/03 07:20:02;;;;;;;49.00;40.55;;;21.40;53.10;;;;;;4562876;57;21043;-23
2021/11/03 07:25:05;;;;;;;46.78;39.92;;;21.40;53.10;;;;;;4560433;57;21578;-26
2021/11/03 07:30:07;;;;;;;47.42;40.83;;;21.40;53.00;;;;;;4569988;57;21043;-27
2021/11/03 07:35:08;;;;;;;51.03;41.95;;;21.40;53.00;;;;;;4556652;61;21071;-24
2021/11/03 07:40:14;;;;;;;48.60;40.92;;;21.40;53.00;;;;;;4575835;57;21751;-29
2021/11/03 07:45:16;;;;;;;49.53;40.78;;;21.40;52.90;;;;;;4555790;61;21099;-27
2021/11/03 07:50:23;;;;;;;51.37;40.97;;;21.40;52.90;;;;;;4646144;57;21165;-28
2021/11/03 07:55:24;;;;;;;;;;;21.40;52.90;;;;;;4567044;57;21039;-20
2021/11/03 08:00:31;;;;;;;49.65;40.28;;;21.40;52.80;;;;;;4563609;57;20306;-26
2021/11/03 08:05:33;;;;;;;51.55;42.00;;;21.40;52.90;;;;;;4558673;57;21040;-23
2021/11/03 08:10:34;;;;;;;51.37;42.08;;;21.40;53.00;;;;;;4577802;57;21522;-18
2021/11/03 08:15:35;;;;;;;49.97;40.92;;;21.50;53.10;;;;;;4574985;57;21081;-22
2021/11/03 08:20:37;;;;;;;49.95;40.55;;;21.50;53.20;;;;;;4557171;61;21074;-24
2021/11/03 08:25:39;;;;;;;50.33;41.28;;;21.50;53.30;;;;;;4573770;57;21557;-25
2021/11/03 08:30:46;;;;;;;50.55;40.63;;;21.50;53.40;;;;;;4561239;57;21048;-27
2021/11/03 08:35:50;;;;;;;50.67;41.37;;;21.60;53.50;;;;;;4558046;61;21051;-30
2021/11/03 08:40:52;;;;;;;52.05;41.42;;;21.60;53.60;;;;;;4563750;57;21270;-32
2021/11/03 08:45:55;;;;;;;50.83;41.78;;;21.60;53.70;;;;;;4557122;61;21177;-29
2021/11/03 08:50:56;;;;;;;52.45;42.35;;;21.60;53.80;;;;;;4560204;57;21156;-29
2021/11/03 08:55:57;;;;;;;52.05;42.50;;;21.70;53.90;;;;;;4581335;57;21577;-29
2021/11/03 09:00:58;;;;;;;53.92;43.55;;;21.70;54.00;;;;;;4568350;57;21038;-28
2021/11/03 09:06:01;;;;;;;54.70;43.65;;;21.70;54.00;;;;;;4568592;57;21100;-31
2021/11/03 09:11:04;;;;;;;56.28;44.05;;;21.80;54.10;;;;;;4575280;57;21031;-23
2021/11/03 09:16:05;;;;;;;56.10;43.97;;;21.70;54.00;;;;;;4561476;57;21633;-28
2021/11/03 09:21:08;;;;;;;56.05;44.90;;;21.70;54.30;;;;;;4562327;57;21143;-32
2021/11/03 09:26:09;;;;;;;53.97;44.00;;;21.80;54.00;;;;;;4568679;57;21612;-28
2021/11/03 09:31:11;;;;;;;55.95;43.58;;;21.80;54.20;;;;;;4571219;57;21059;-28
2021/11/03 09:36:16;;;;;;;60.92;47.70;;;21.80;54.20;;;;;;4559832;57;21067;-29
2021/11/03 09:41:29;;;;;;;64.60;51.35;;;21.80;54.20;;;;;;4578206;57;21030;-30
2021/11/03 09:46:37;;;;;;;73.80;55.45;;;21.80;54.20;;;;;;4558965;57;22203;-28
2021/11/03 09:51:44;;;;;;;71.82;56.47;;;21.80;54.20;;;;;;4556996;61;22517;-28
2021/11/03 09:56:59;;;;;;;78.03;59.03;;;21.80;54.20;;;;;;4565910;57;21043;-28
2021/11/03 10:02:29;;;;;;;79.68;61.95;;;21.90;54.20;;;;;;4557762;57;21027;-32
2021/11/03 10:08:05;;;;;;;86.87;65.95;;;21.90;54.30;;;;;;4556001;61;21547;-26
2021/11/03 10:13:39;;;;;;;94.95;72.32;;;21.90;54.20;;;;;;4609676;57;21513;-29
2021/11/03 10:19:05;;;;;;;96.05;74.00;;;21.90;54.30;;;;;;4559038;57;21661;-23
2021/11/03 10:25:28;;;;;;;98.53;74.35;;;21.90;54.30;;;;;;4556101;61;21517;-33
2021/11/03 10:30:51;;;;;;;102.35;79.93;;;21.90;54.30;;;;;;4556426;57;21578;-28
2021/11/03 10:36:14;;;;;;;102.80;78.55;;;22.00;54.40;;;;;;4583871;57;21039;-28
2021/11/03 10:41:25;;;;;;;110.78;84.22;;;21.90;54.40;;;;;;4578618;57;21188;-28
2021/11/03 10:46:31;;;;;;;113.55;87.10;;;22.00;54.50;;;;;;4559181;57;21039;-26
2021/11/03 10:51:38;;;;;;;115.05;87.00;;;22.00;54.50;;;;;;4563336;57;21525;-22
2021/11/03 10:57:02;;;;;;;115.50;89.90;;;22.00;54.50;;;;;;4608550;57;21501;-25
2021/11/03 11:02:24;;;;;;;115.57;89.75;;;22.00;54.50;;;;;;4571790;57;21051;-32
2021/11/03 11:07:34;;;;;;;116.75;92.57;;;22.10;54.70;;;;;;4565373;57;21080;-29
2021/11/03 11:12:41;;;;;;;123.95;92.35;;;22.10;54.60;;;;;;4556081;58;21651;-25
2021/11/03 11:18:00;;;;;;;122.45;95.90;;;22.00;54.60;;;;;;4585047;57;21167;-26
2021/11/03 11:23:21;;;;;;;129.38;97.68;;;22.00;54.60;;;;;;4564018;57;21051;-31
2021/11/03 11:30:18;;;;;;;141.25;105.22;;;22.10;54.60;;;;;;4557564;57;21075;-28
2021/11/03 11:36:52;;;;;;;141.98;106.40;;;22.10;54.60;;;;;;4570967;57;21075;-26
2021/11/03 11:43:24;;;;;;;148.27;109.32;;;22.10;54.60;;;;;;4567596;57;21020;-28
2021/11/03 11:48:31;;;;;;;145.80;112.20;;;22.10;54.50;;;;;;4581383;57;21497;-30
2021/11/03 11:55:56;;;;;;;150.82;114.88;;;22.10;54.50;;;;;;4557146;58;22346;-27
2021/11/03 12:01:27;;;;;;;145.23;110.32;;;22.10;54.50;;;;;;4556924;59;21460;-20
2021/11/03 12:07:42;;;;;;;146.48;110.43;;;22.10;55.00;;;;;;4583016;57;21075;-31
2021/11/03 12:14:35;;;;;;;136.85;106.90;;;22.20;54.40;;;;;;4556486;57;21067;-29
2021/11/03 12:19:49;;;;;;;143.20;111.60;;;22.10;54.40;;;;;;4563561;57;21148;-24
2021/11/03 12:24:53;;;;;;;137.02;107.65;;;22.10;54.40;;;;;;4566832;57;21545;-23
2021/11/03 12:31:50;;;;;;;136.80;106.18;;;22.10;54.30;;;;;;4562062;57;21050;-30
2021/11/03 12:36:55;;;;;;;140.57;108.75;;;22.10;54.20;;;;;;4572346;57;21621;-24
2021/11/03 12:42:26;;;;;;;141.23;106.97;;;22.10;54.10;;;;;;4572306;57;21101;-25
2021/11/03 12:47:55;;;;;;;140.12;107.75;;;22.10;53.90;;;;;;4558100;57;21151;-30
2021/11/03 12:53:51;;;;;;;137.35;106.05;;;22.10;53.80;;;;;;4582388;57;21063;-27
2021/11/03 12:58:57;;;;;;;134.50;103.30;;;22.10;53.80;;;;;;4578005;57;21066;-25
2021/11/03 13:04:21;;;;;;;136.62;104.00;;;22.10;53.80;;;;;;4555588;57;21564;-26
2021/11/03 13:09:35;;;;;;;135.90;102.25;;;22.20;53.80;;;;;;4562889;57;21097;-20
2021/11/03 13:14:35;;;;;;;138.88;106.22;;;22.20;54.20;;;;;;4573281;57;21083;-30
2021/11/03 13:19:42;;;;;;;141.52;104.57;;;22.20;54.30;;;;;;4573746;57;21407;-26
2021/11/03 13:24:43;;;;;;;134.80;105.32;;;22.20;54.50;;;;;;4566811;57;21075;-29
2021/11/03 13:29:54;;;;;;;134.63;104.57;;;22.30;54.70;;;;;;4560017;57;21039;-23
2021/11/03 13:35:18;;;;;;;137.93;107.47;;;22.30;54.70;;;;;;4562730;57;21589;-25
2021/11/03 13:40:25;;;;;;;135.65;105.18;;;22.40;54.80;;;;;;4566095;57;21050;-23
2021/11/03 13:45:35;;;;;;;137.75;103.68;;;22.40;54.80;;;;;;4568072;57;21538;-23
2021/11/03 13:51:40;;;;;;;141.93;107.87;;;22.40;54.80;;;;;;4564085;57;21066;-30
2021/11/03 13:56:48;;;;;;;132.95;102.85;;;22.40;54.90;;;;;;4557239;61;21662;-28
2021/11/03 14:01:56;;;;;;;135.35;104.75;;;22.40;55.00;;;;;;4590792;57;21122;-23
2021/11/03 14:07:11;;;;;;;128.75;100.75;;;22.40;54.90;;;;;;4585740;57;21760;-28
2021/11/03 14:12:12;;;;;;;128.98;101.50;;;22.50;55.00;;;;;;4556455;61;21047;-26
2021/11/03 14:17:22;;;;;;;138.90;103.95;;;22.50;55.10;;;;;;4568637;57;21521;-26
2021/11/03 14:22:36;;;;;;;131.55;102.75;;;22.50;55.00;;;;;;4562852;57;21047;-30
2021/11/03 14:27:37;;;;;;;130.57;102.57;;;22.50;55.00;;;;;;4583083;57;21565;-22
2021/11/03 14:32:38;;;;;;;126.90;99.75;;;22.50;55.00;;;;;;4556891;61;21116;-27
2021/11/03 14:37:39;;;;;;;128.73;98.28;;;22.50;55.00;;;;;;4563374;57;22326;-27
2021/11/03 14:42:40;;;;;;;125.72;98.12;;;22.60;55.00;;;;;;4560944;57;21067;-29
2021/11/03 14:47:42;;;;;;;127.65;95.72;;;22.60;55.00;;;;;;4570046;57;21598;-30
2021/11/03 14:52:44;;;;;;;124.03;95.25;;;22.60;54.90;;;;;;4581730;57;21103;-30
2021/11/03 14:57:45;;;;;;;115.57;91.18;;;22.60;54.80;;;;;;4581312;57;21087;-31
2021/11/03 15:02:59;;;;;;;117.62;88.47;;;22.60;54.80;;;;;;4561276;57;21503;-29
2021/11/03 15:08:10;;;;;;;112.40;87.57;;;22.60;54.80;;;;;;4567556;57;21082;-24
2021/11/03 15:13:11;;;;;;;110.80;85.93;;;22.60;54.70;;;;;;4571981;57;21027;-28
2021/11/03 15:18:19;;;;;;;111.78;87.07;;;22.60;54.60;;;;;;4587784;57;21489;-26
2021/11/03 15:23:26;;;;;;;113.55;87.45;;;22.60;54.60;;;;;;4558736;57;21087;-26
2021/11/03 15:28:27;;;;;;;;;;;22.70;54.60;;;;;;4565738;57;21032;-25
2021/11/03 15:33:31;;;;;;;110.28;84.65;;;22.70;54.50;;;;;;4566820;57;20095;-19
2021/11/03 15:38:36;;;;;;;109.05;83.57;;;22.70;54.50;;;;;;4561531;57;21036;-28
2021/11/03 15:43:39;;;;;;;112.60;86.00;;;22.70;54.50;;;;;;4567886;57;21051;-26
2021/11/03 15:48:40;;;;;;;114.90;88.95;;;22.70;54.50;;;;;;4600642;57;21254;-22
2021/11/03 15:53:41;;;;;;;114.32;85.68;;;22.70;54.40;;;;;;4566887;57;21501;-31
2021/11/03 15:58:42;;;;;;;110.07;85.93;;;22.70;54.20;;;;;;4561084;57;21147;-27
2021/11/03 16:03:53;;;;;;;114.57;87.12;;;22.70;54.30;;;;;;4612881;57;21518;-30
2021/11/03 16:08:54;;;;;;;114.78;84.75;;;22.70;54.40;;;;;;4557270;61;21644;-31
2021/11/03 16:13:55;;;;;;;105.50;81.45;;;22.60;54.40;;;;;;4585289;57;21102;-31
2021/11/03 16:18:56;;;;;;;105.00;81.22;;;22.50;54.40;;;;;;4557585;57;21586;-27
2021/11/03 16:23:58;;;;;;;102.18;81.95;;;22.50;54.50;;;;;;4576816;57;21095;-31
2021/11/03 16:28:59;;;;;;;105.55;81.40;;;22.40;54.50;;;;;;4593681;57;21628;-30
2021/11/03 16:34:00;;;;;;;102.12;77.57;;;22.40;54.50;;;;;;4559903;57;21199;-32
2021/11/03 16:39:06;;;;;;;102.45;80.40;;;22.30;54.50;;;;;;4558096;61;21505;-29
2021/11/03 16:44:53;;;;;;;96.18;77.07;;;22.30;54.50;;;;;;4568770;57;21134;-20
2021/11/03 16:49:55;;;;;;;99.47;76.85;;;22.30;54.60;;;;;;4568167;57;21182;-32
2021/11/03 16:54:56;;;;;;;101.22;78.30;;;22.30;54.50;;;;;;4569659;57;21119;-27
2021/11/03 16:59:57;;;;;;;102.45;80.78;;;22.30;54.50;;;;;;4557430;61;21116;-29
2021/11/03 17:04:58;;;;;;;97.37;74.87;;;22.30;54.50;;;;;;4557306;61;21063;-29
2021/11/03 17:10:01;;;;;;;96.75;76.75;;;22.20;54.50;;;;;;4571029;57;21518;-26
2021/11/03 17:15:02;;;;;;;105.35;80.87;;;22.20;54.50;;;;;;4557484;58;22201;-31
2021/11/03 17:20:04;;;;;;;99.07;76.82;;;22.20;54.50;;;;;;4568948;57;21035;-31
2021/11/03 17:25:06;;;;;;;97.10;75.65;;;22.20;54.50;;;;;;4600610;57;21135;-29
2021/11/03 17:30:33;;;;;;;92.80;75.57;;;22.20;54.50;;;;;;4564544;57;21545;-26
2021/11/03 17:35:37;;;;;;;101.57;78.17;;;22.20;54.50;;;;;;4575249;57;21165;-33
2021/11/03 17:40:41;;;;;;;94.05;75.57;;;22.20;54.50;;;;;;4577815;57;21039;-30
2021/11/03 17:45:43;;;;;;;98.68;75.50;;;22.10;54.50;;;;;;4564224;57;21090;-23
2021/11/03 17:50:45;;;;;;;93.40;73.78;;;22.10;54.40;;;;;;4623671;57;21542;-32
2021/11/03 17:56:00;;;;;;;93.62;73.47;;;22.10;54.40;;;;;;4557782;61;21139;-27
2021/11/03 18:01:04;;;;;;;98.18;73.32;;;22.10;54.40;;;;;;4577464;57;21039;-24
2021/11/03 18:06:05;;;;;;;95.25;75.12;;;22.10;54.40;;;;;;4580929;57;21107;-29
2021/11/03 18:11:28;;;;;;;95.62;74.30;;;22.10;54.50;;;;;;4557103;61;21553;-30
2021/11/03 18:16:30;;;;;;;94.22;72.53;;;22.10;54.40;;;;;;4576465;57;21190;-32
2021/11/03 18:21:31;;;;;;;89.40;71.12;;;22.10;54.40;;;;;;4593937;57;21549;-23
2021/11/03 18:26:33;;;;;;;91.90;73.37;;;22.10;54.40;;;;;;4557888;57;21051;-32
2021/11/03 18:31:37;;;;;;;89.60;70.50;;;22.10;54.40;;;;;;4567937;57;21048;-24
2021/11/03 18:36:38;;;;;;;88.62;70.18;;;22.10;54.20;;;;;;4574251;57;21574;-32
2021/11/03 18:41:48;;;;;;;86.03;68.95;;;22.00;54.30;;;;;;4593286;57;21076;-24
2021/11/03 18:46:51;;;;;;;88.55;69.40;;;22.00;54.30;;;;;;4571825;57;21259;-22
2021/11/03 18:51:57;;;;;;;86.57;69.93;;;22.00;54.30;;;;;;4577062;57;21174;-26
2021/11/03 18:56:59;;;;;;;86.47;69.20;;;22.00;54.30;;;;;;4576570;57;21080;-30
2021/11/03 19:02:00;;;;;;;89.70;69.60;;;22.00;54.30;;;;;;4568156;57;21115;-24
2021/11/03 19:07:02;;;;;;;86.87;68.20;;;22.00;54.30;;;;;;4568862;57;21521;-32
2021/11/03 19:12:14;;;;;;;84.45;66.10;;;22.00;54.20;;;;;;4566642;57;21119;-28
2021/11/03 19:17:15;;;;;;;84.95;67.70;;;22.00;54.20;;;;;;4557262;61;21097;-29
2021/11/03 19:22:34;;;;;;;83.72;66.28;;;22.00;54.20;;;;;;4578205;57;21617;-30
2021/11/03 19:27:36;;;;;;;84.22;67.15;;;22.00;54.20;;;;;;4607442;57;21079;-24
2021/11/03 19:32:37;;;;;;;82.60;64.82;;;22.00;54.30;;;;;;4557650;57;21551;-32
2021/11/03 19:37:44;;;;;;;87.05;65.93;;;22.00;54.20;;;;;;4566495;57;21095;-21
2021/11/03 19:42:45;;;;;;;78.82;62.62;;;22.00;54.30;;;;;;4567014;57;21070;-29
2021/11/03 19:47:47;;;;;;;77.45;64.03;;;21.90;54.20;;;;;;4558731;57;21087;-29
2021/11/03 19:52:48;;;;;;;79.07;63.30;;;22.00;54.20;;;;;;4560342;57;21506;-27
2021/11/03 19:57:50;;;;;;;79.60;64.15;;;21.90;54.10;;;;;;4560102;57;21062;-25
2021/11/03 20:02:52;;;;;;;79.37;64.20;;;21.90;54.10;;;;;;4583237;57;21566;-27
2021/11/03 20:08:15;;;;;;;81.60;64.07;;;22.00;54.10;;;;;;4569160;57;21059;-26
2021/11/03 20:13:42;;;;;;;77.37;62.83;;;21.90;54.10;;;;;;4557145;61;21047;-26
2021/11/03 20:18:43;;;;;;;77.45;61.58;;;21.90;54.10;;;;;;4605892;57;21521;-31
2021/11/03 20:23:44;;;;;;;77.05;62.85;;;21.90;54.10;;;;;;4581338;57;21055;-30
2021/11/03 20:28:45;;;;;;;75.90;60.85;;;21.90;54.10;;;;;;4576616;56;21115;-29
2021/11/03 20:33:48;;;;;;;74.75;59.53;;;22.00;54.10;;;;;;4557897;61;21039;-31
2021/11/03 20:38:55;;;;;;;77.00;60.97;;;21.90;54.00;;;;;;4557952;61;21067;-32
2021/11/03 20:43:56;;;;;;;77.68;62.50;;;21.90;54.00;;;;;;4581308;57;21072;-21
2021/11/03 20:48:57;;;;;;;76.37;61.80;;;21.90;54.00;;;;;;4557901;61;21115;-28
2021/11/03 20:53:58;;;;;;;70.07;57.42;;;21.90;54.00;;;;;;4574672;57;21031;-28
2021/11/03 20:58:59;;;;;;;76.00;60.90;;;21.90;54.00;;;;;;4571569;57;21557;-25
2021/11/03 21:04:00;;;;;;;70.95;57.42;;;21.90;54.00;;;;;;4572831;57;21051;-29
2021/11/03 21:09:03;;;;;;;74.85;60.00;;;21.90;54.10;;;;;;4570071;57;21150;-31
2021/11/03 21:14:04;;;;;;;73.55;58.72;;;21.90;54.00;;;;;;4569517;57;21569;-28
2021/11/03 21:19:06;;;;;;;72.25;59.28;;;21.90;54.00;;;;;;4561413;57;21103;-28
2021/11/03 21:24:07;;;;;;;74.32;57.55;;;21.90;54.00;;;;;;4557464;58;21637;-24
2021/11/03 21:29:08;;;;;;;72.90;57.78;;;21.90;54.00;;;;;;4563168;57;21115;-29
2021/11/03 21:34:09;;;;;;;70.75;57.97;;;21.90;54.00;;;;;;4570631;57;21505;-28
2021/11/03 21:39:10;;;;;;;70.50;57.42;;;21.90;54.00;;;;;;4572684;57;21107;-32
2021/11/03 21:44:11;;;;;;;66.57;54.97;;;21.90;54.00;;;;;;4588326;57;21043;-29
2021/11/03 21:49:12;;;;;;;69.72;56.08;;;21.90;54.00;;;;;;4557224;61;21561;-24
2021/11/03 21:54:13;;;;;;;69.05;56.70;;;21.90;54.00;;;;;;4579220;57;21084;-26
2021/11/03 21:59:14;;;;;;;70.68;56.92;;;21.90;54.00;;;;;;4572529;57;21514;-30
2021/11/03 22:04:15;;;;;;;68.40;54.25;;;21.90;54.00;;;;;;4582759;57;21550;-26
2021/11/03 22:09:16;;;;;;;68.07;54.30;;;21.90;54.00;;;;;;4560254;57;21091;-28
2021/11/03 22:14:18;;;;;;;67.30;53.65;;;21.90;54.00;;;;;;4557387;61;21569;-32
2021/11/03 22:19:18;;;;;;;65.47;53.75;;;21.90;54.00;;;;;;4558197;61;21031;-31
2021/11/03 22:24:20;;;;;;;67.62;54.35;;;21.90;54.00;;;;;;4567390;57;21068;-23
2021/11/03 22:29:21;;;;;;;68.57;53.97;;;21.90;54.00;;;;;;4557407;57;21040;-28
2021/11/03 22:34:21;;;;;;;63.42;51.78;;;21.90;54.00;;;;;;4557499;61;21047;-25
2021/11/03 22:39:25;;;;;;;65.75;53.45;;;21.90;54.00;;;;;;4565248;57;21573;-32
2021/11/03 22:44:26;;;;;;;64.35;52.13;;;21.90;54.00;;;;;;4565823;57;21660;-29
2021/11/03 22:49:27;;;;;;;63.78;52.30;;;21.90;54.00;;;;;;4556754;61;21541;-30
2021/11/03 22:54:28;;;;;;;66.80;54.50;;;21.90;54.00;;;;;;4566382;57;21052;-26
2021/11/03 22:59:29;;;;;;;62.72;50.92;;;21.90;54.00;;;;;;4580819;57;21119;-29
2021/11/03 23:04:29;;;;;;;63.92;51.85;;;21.90;54.00;;;;;;4571592;57;21054;-28
2021/11/03 23:09:30;;;;;;;63.70;50.60;;;21.90;53.90;;;;;;4556832;58;21102;-23
2021/11/03 23:14:31;;;;;;;61.92;51.05;;;21.90;53.90;;;;;;4580699;57;21060;-31
2021/11/03 23:19:32;;;;;;;64.12;53.20;;;21.90;54.00;;;;;;4557851;58;21027;-29
2021/11/03 23:24:33;;;;;;;64.20;52.22;;;21.90;54.00;;;;;;4557004;61;21617;-28
2021/11/03 23:29:34;;;;;;;60.67;49.75;;;21.90;53.90;;;;;;4556492;61;21075;-26
2021/11/03 23:34:36;;;;;;;60.38;49.97;;;21.90;53.90;;;;;;4574315;57;21091;-28
2021/11/03 23:39:37;;;;;;;61.00;50.28;;;21.90;53.90;;;;;;4569025;57;21591;-28
2021/11/03 23:44:37;;;;;;;61.13;50.12;;;21.90;53.90;;;;;;4562682;57;21513;-28
2021/11/03 23:49:38;;;;;;;59.85;47.95;;;21.90;53.90;;;;;;4588656;57;21119;-28
2021/11/03 23:54:39;;;;;;;60.80;49.38;;;21.80;53.80;;;;;;4564631;57;21124;-26
2021/11/03 23:59:40;;;;;;;59.83;49.17;;;21.90;53.90;;;;;;4563429;57;21143;-19
